Time;durP1;ratioP1;P1;durP2;ratioP2;P2;SDS_P1;SDS_P2;PMS_P1;PMS_P2;Temp;Humidity;BMP_temperature;BMP_pressure;BME280_temperature;BME280_humidity;BME280_pressure;Samples;Min_cycle;Max_cycle;Signal;HPM_P1;HPM_P2
2022/01/10 00:00:22;;;;;;;22.52;18.23;;;;;;;-0.08;100.00;100697.16;5055329;28;20179;-78
2022/01/10 00:02:52;;;;;;;21.55;18.77;;;;;;;-0.09;100.00;100702.41;5053356;28;20182;-77
2022/01/10 00:05:18;;;;;;;24.10;19.33;;;;;;;-0.19;100.00;100705.91;5035339;28;20232;-78
2022/01/10 00:07:44;;;;;;;25.52;19.42;;;;;;;-0.18;100.00;100699.75;5052269;28;20676;-78
2022/01/10 00:10:10;;;;;;;21.13;17.67;;;;;;;-0.08;100.00;100714.72;5055330;28;20245;-78
2022/01/10 00:12:36;;;;;;;19.58;17.17;;;;;;;0.01;100.00;100727.91;5055173;28;20167;-77
2022/01/10 00:15:03;;;;;;;21.90;18.10;;;;;;;0.01;100.00;100724.41;5037221;28;20175;-78
2022/01/10 00:17:28;;;;;;;18.60;16.58;;;;;;;0.03;100.00;100733.19;5037288;28;20302;-78
2022/01/10 00:19:53;;;;;;;21.65;18.08;;;;;;;0.07;100.00;100738.47;5054572;28;20226;-78
2022/01/10 00:22:20;;;;;;;19.98;17.13;;;;;;;0.10;100.00;100737.59;5035332;28;20640;-77
2022/01/10 00:24:45;;;;;;;22.25;17.92;;;;;;;0.12;100.00;100746.38;5036436;28;20258;-79
2022/01/10 00:27:11;;;;;;;22.70;18.77;;;;;;;-0.09;100.00;100752.44;5061193;28;20217;-77
2022/01/10 00:29:36;;;;;;;22.17;18.05;;;;;;;-0.13;100.00;100742.75;5074405;28;20187;-80
2022/01/10 00:32:02;;;;;;;22.80;17.95;;;;;;;-0.10;100.00;100754.19;5053792;28;20204;-78
2022/01/10 00:34:28;;;;;;;21.10;17.63;;;;;;;-0.14;100.00;100752.44;5055410;28;20200;-77
2022/01/10 00:36:53;;;;;;;22.27;17.25;;;;;;;-0.11;100.00;100756.81;5038257;28;20244;-76
2022/01/10 00:39:19;;;;;;;24.92;17.63;;;;;;;-0.12;100.00;100762.97;5053376;28;20198;-77
2022/01/10 00:41:45;;;;;;;21.77;17.30;;;;;;;-0.07;100.00;100767.38;5071964;28;20167;-78
2022/01/10 00:44:14;;;;;;;22.48;18.27;;;;;;;-0.13;100.00;100767.38;5028857;28;20179;-81
2022/01/10 00:46:40;;;;;;;22.02;18.02;;;;;;;-0.10;100.00;100780.53;5054662;28;20174;-77
2022/01/10 00:49:06;;;;;;;20.08;17.63;;;;;;;-0.01;100.00;100782.34;5054514;28;20534;-77
2022/01/10 00:51:31;;;;;;;20.85;17.33;;;;;;;-0.09;100.00;100800.75;5072744;28;20178;-77
2022/01/10 00:53:57;;;;;;;23.23;18.08;;;;;;;-0.05;100.00;100797.22;5072838;28;20536;-77
2022/01/10 00:56:24;;;;;;;18.88;16.20;;;;;;;-0.04;100.00;100801.63;5056415;28;20179;-78
2022/01/10 00:58:50;;;;;;;19.77;16.65;;;;;;;0.06;100.00;100815.72;5072525;28;20182;-80
2022/01/10 01:01:17;;;;;;;24.95;19.20;;;;;;;-0.01;100.00;100821.84;5053573;28;20650;-79
2022/01/10 01:03:42;;;;;;;22.45;18.23;;;;;;;0.03;100.00;100823.63;5055046;28;20221;-77
2022/01/10 01:06:10;;;;;;;21.35;17.55;;;;;;;0.10;100.00;100832.44;5054478;28;20262;-77
2022/01/10 01:08:36;;;;;;;21.25;17.63;;;;;;;0.06;100.00;100830.66;5072331;28;20210;-77
2022/01/10 01:16:16;;;;;;;22.77;18.63;;;;;;;0.07;100.00;100853.50;5072886;28;20166;-77
2022/01/10 01:26:26;;;;;;;20.80;17.58;;;;;;;0.07;100.00;100864.91;5071933;28;20163;-77
2022/01/10 01:28:52;;;;;;;23.42;18.35;;;;;;;0.10;100.00;100877.22;5051828;28;20211;-76
2022/01/10 01:31:17;;;;;;;20.55;17.02;;;;;;;0.13;100.00;100886.03;5050942;28;20171;-78
2022/01/10 01:33:42;;;;;;;20.70;18.27;;;;;;;0.10;100.00;100882.47;5051043;28;20174;-79
2022/01/10 01:36:08;;;;;;;21.40;17.48;;;;;;;0.12;100.00;100904.44;5034430;28;20210;-78
2022/01/10 01:38:36;;;;;;;21.25;17.65;;;;;;;0.11;100.00;100905.28;5018230;28;20212;-78
2022/01/10 01:41:22;;;;;;;21.65;18.60;;;;;;;-0.01;100.00;100914.91;5034025;28;20179;-77
2022/01/10 01:43:49;;;;;;;21.48;17.83;;;;;;;0.09;100.00;100917.56;5033631;28;20182;-77
2022/01/10 01:46:18;;;;;;;20.77;17.38;;;;;;;0.10;100.00;100928.13;5034403;28;20867;-78
2022/01/10 01:48:45;;;;;;;24.35;19.67;;;;;;;0.04;100.00;100928.09;5033510;28;20675;-77
2022/01/10 01:51:12;;;;;;;22.63;18.63;;;;;;;0.10;100.00;100937.78;5037631;28;20198;-78
2022/01/10 01:53:38;;;;;;;21.60;18.50;;;;;;;0.17;100.00;100937.81;5038478;28;20175;-78
2022/01/10 01:56:10;;;;;;;21.05;17.73;;;;;;;0.24;100.00;100936.13;5038640;28;20170;-78
2022/01/10 01:58:38;;;;;;;21.98;18.70;;;;;;;0.26;100.00;100941.41;5023310;28;20215;-80
2022/01/10 02:01:06;;;;;;;25.45;18.83;;;;;;;0.28;100.00;100947.56;5038835;28;20174;-78
2022/01/10 02:03:38;;;;;;;21.75;18.58;;;;;;;0.30;100.00;100954.59;5036728;28;20258;-77
2022/01/10 02:06:07;;;;;;;24.75;19.73;;;;;;;0.24;100.00;100954.59;5037671;28;20579;-77
2022/01/10 02:08:36;;;;;;;25.45;19.58;;;;;;;0.26;100.00;100960.72;5038561;28;20614;-78
2022/01/10 02:11:05;;;;;;;20.67;18.00;;;;;;;0.35;100.00;100973.06;5041407;28;20213;-81
2022/01/10 02:13:31;;;;;;;25.75;19.08;;;;;;;0.22;100.00;100968.59;5057648;28;20506;-78
2022/01/10 02:16:02;;;;;;;24.13;19.70;;;;;;;0.26;100.00;100987.06;5041415;28;20224;-78
2022/01/10 02:18:33;;;;;;;23.65;19.42;;;;;;;0.26;100.00;100987.06;5059205;28;20203;-79
2022/01/10 02:21:05;;;;;;;21.42;18.83;;;;;;;0.28;100.00;100993.22;5057348;28;20214;-78
2022/01/10 02:23:32;;;;;;;25.67;20.80;;;;;;;0.23;100.00;100992.31;5041472;28;20240;-78
2022/01/10 02:26:08;;;;;;;23.27;19.10;;;;;;;0.31;100.00;100998.53;5075133;28;20496;-78
2022/01/10 02:28:35;;;;;;;24.40;19.23;;;;;;;0.37;100.00;101010.84;5057752;28;20799;-78
2022/01/10 02:31:01;;;;;;;24.60;19.98;;;;;;;0.31;100.00;101001.19;5055875;28;20183;-82
2022/01/10 02:33:30;;;;;;;22.38;18.98;;;;;;;0.28;100.00;101016.06;5039794;28;20222;-78
2022/01/10 02:36:14;;;;;;;22.38;19.45;;;;;;;0.20;100.00;101016.91;5056256;28;20171;-78
2022/01/10 02:39:00;;;;;;;27.38;19.40;;;;;;;0.23;100.00;101025.72;5057060;28;20242;-78
2022/01/10 02:41:30;;;;;;;21.45;18.45;;;;;;;0.29;100.00;101029.25;5057265;28;20174;-77
2022/01/10 02:43:58;;;;;;;22.95;18.80;;;;;;;0.26;100.00;101031.84;5056724;28;20183;-78
2022/01/10 02:46:25;;;;;;;23.20;19.35;;;;;;;0.31;100.00;101037.19;5039441;28;20186;-76
2022/01/10 02:48:52;;;;;;;22.13;18.13;;;;;;;0.30;100.00;101038.03;5058682;28;20272;-78
2022/01/10 02:51:19;;;;;;;22.30;17.73;;;;;;;0.37;100.00;101056.56;5042235;28;20198;-75
2022/01/10 02:53:45;;;;;;;22.00;18.58;;;;;;;0.37;100.00;101058.28;5057378;28;20318;-77
2022/01/10 02:56:11;;;;;;;20.60;17.55;;;;;;;0.41;100.00;101063.59;5039027;28;20214;-76
2022/01/10 02:58:37;;;;;;;21.75;18.58;;;;;;;0.44;100.00;101067.13;5058108;28;20211;-78
2022/01/10 03:01:04;;;;;;;22.48;19.20;;;;;;;0.44;100.00;101072.41;5055115;28;20364;-77
2022/01/10 03:03:33;;;;;;;20.88;17.45;;;;;;;0.47;100.00;101073.31;5056098;28;20279;-77
2022/01/10 03:06:00;;;;;;;23.42;18.52;;;;;;;0.43;100.00;101086.47;5038392;28;20174;-77
2022/01/10 03:08:27;;;;;;;23.23;19.40;;;;;;;0.45;100.00;101088.22;5057067;28;20210;-77
2022/01/10 03:10:54;;;;;;;21.38;18.58;;;;;;;0.41;100.00;101092.59;5041036;28;20627;-78
2022/01/10 03:13:19;;;;;;;23.58;19.30;;;;;;;0.47;100.00;101088.25;5058265;28;20245;-78
2022/01/10 03:15:45;;;;;;;19.35;17.05;;;;;;;0.50;100.00;101090.91;5073360;28;20214;-79
2022/01/10 03:18:10;;;;;;;22.23;17.88;;;;;;;0.52;100.00;101099.69;5055323;28;20201;-78
2022/01/10 03:20:36;;;;;;;21.83;19.27;;;;;;;0.52;100.00;101105.84;5055357;28;20261;-77
2022/01/10 03:23:03;;;;;;;21.45;18.00;;;;;;;0.51;100.00;101101.47;5038436;28;20175;-78
2022/01/10 03:25:28;;;;;;;19.58;16.90;;;;;;;0.55;100.00;101110.28;5054733;28;20869;-76
2022/01/10 03:27:58;;;;;;;20.98;16.73;;;;;;;0.60;100.00;101124.38;5055006;28;20257;-76
2022/01/10 03:30:23;;;;;;;20.58;17.90;;;;;;;0.58;100.00;101124.34;5055008;28;20265;-76
2022/01/10 03:32:51;;;;;;;21.10;17.33;;;;;;;0.62;100.00;101138.47;5055127;28;20281;-78
2022/01/10 03:35:25;;;;;;;19.75;16.63;;;;;;;0.66;100.00;101142.88;5054812;28;20269;-77
2022/01/10 03:37:51;;;;;;;20.75;17.20;;;;;;;0.68;100.00;101142.88;5054194;28;20829;-77
2022/01/10 03:40:16;;;;;;;21.35;17.38;;;;;;;0.68;100.00;101143.78;5071368;28;20202;-78
2022/01/10 03:42:42;;;;;;;23.05;18.23;;;;;;;0.70;100.00;101149.94;5072397;28;20208;-76
2022/01/10 03:45:08;;;;;;;21.88;17.80;;;;;;;0.71;100.00;101148.19;5038213;28;20167;-76
2022/01/10 03:47:34;;;;;;;21.65;17.88;;;;;;;0.73;100.00;101149.09;5054096;28;20299;-76
2022/01/10 03:50:00;;;;;;;25.08;18.15;;;;;;;0.71;100.00;101154.34;5054204;28;20564;-78
2022/01/10 03:52:27;;;;;;;22.52;16.90;;;;;;;0.74;100.00;101161.38;5054328;28;20270;-77
2022/01/10 03:54:53;;;;;;;23.45;19.27;;;;;;;0.70;100.00;101173.69;5054473;28;20182;-77
2022/01/10 03:57:18;;;;;;;22.48;18.23;;;;;;;0.73;100.00;101165.78;5037282;28;20243;-77
2022/01/10 03:59:44;;;;;;;19.90;16.98;;;;;;;0.75;100.00;101177.22;5054429;28;20191;-77
2022/01/10 04:02:09;;;;;;;19.60;17.17;;;;;;;0.78;100.00;101173.72;5054328;28;20560;-77
2022/01/10 04:04:38;;;;;;;19.80;16.02;;;;;;;0.78;100.00;101179.88;5054637;28;20212;-77
2022/01/10 04:07:04;;;;;;;19.40;16.50;;;;;;;0.80;100.00;101187.81;5054612;28;20159;-78
2022/01/10 04:09:31;;;;;;;18.90;16.35;;;;;;;0.75;100.00;101203.59;5053985;28;20210;-76
2022/01/10 04:11:56;;;;;;;21.63;17.17;;;;;;;0.75;100.00;101208.88;5032657;28;20187;-77
2022/01/10 04:14:22;;;;;;;20.33;17.27;;;;;;;0.71;100.00;101212.34;5069266;28;20199;-77
2022/01/10 04:16:47;;;;;;;21.60;17.73;;;;;;;0.75;100.00;101215.91;5055562;28;20208;-77
2022/01/10 04:19:13;;;;;;;21.10;17.48;;;;;;;0.75;100.00;101218.53;5055022;28;20194;-80
2022/01/10 04:21:38;;;;;;;21.77;18.00;;;;;;;0.73;100.00;101230.84;5050441;28;20179;-77
2022/01/10 04:24:04;;;;;;;20.83;17.33;;;;;;;0.74;100.00;101238.75;5051012;28;20620;-77
2022/01/10 04:26:30;;;;;;;17.42;15.32;;;;;;;0.81;100.00;101229.16;5053254;28;20639;-77
2022/01/10 04:28:55;;;;;;;28.70;20.95;;;;;;;0.86;100.00;101248.53;5037933;28;20209;-77
2022/01/10 04:31:21;;;;;;;24.52;20.35;;;;;;;0.85;100.00;101256.41;5037183;28;20230;-76
2022/01/10 04:33:47;;;;;;;26.35;19.02;;;;;;;0.83;100.00;101264.31;5054116;28;20682;-78
2022/01/10 04:36:12;;;;;;;25.55;21.15;;;;;;;0.79;100.00;101266.06;5071878;28;20177;-77
2022/01/10 04:38:42;;;;;;;28.10;22.10;;;;;;;0.88;100.00;101272.28;5054850;28;20677;-76
2022/01/10 04:41:09;;;;;;;31.65;23.67;;;;;;;0.91;100.00;101275.81;5037566;28;20196;-77
2022/01/10 04:43:36;;;;;;;33.20;24.73;;;;;;;0.91;100.00;101278.44;5056655;28;20174;-77
2022/01/10 04:46:03;;;;;;;33.58;23.38;;;;;;;0.97;100.00;101277.63;5053602;28;20596;-77
2022/01/10 04:48:28;;;;;;;28.35;21.30;;;;;;;0.97;100.00;101280.28;5053389;28;20225;-76
2022/01/10 04:51:16;;;;;;;32.42;23.58;;;;;;;1.00;100.00;101285.56;5053415;28;20177;-77
2022/01/10 04:53:47;;;;;;;36.80;24.77;;;;;;;1.04;100.00;101297.91;5053410;28;20228;-77
2022/01/10 04:56:15;;;;;;;40.95;29.15;;;;;;;1.04;100.00;101295.28;5036267;28;20171;-77
2022/01/10 04:58:42;;;;;;;43.85;29.45;;;;;;;1.04;100.00;101300.56;5036799;28;20403;-77
2022/01/10 05:01:09;;;;;;;41.85;28.65;;;;;;;1.05;100.00;101307.63;5054409;28;20178;-77
2022/01/10 05:03:36;;;;;;;42.78;27.98;;;;;;;1.01;100.00;101319.88;5053496;28;20175;-77
2022/01/10 05:06:02;;;;;;;40.90;27.45;;;;;;;1.04;100.00;101313.75;5071519;28;20261;-77
2022/01/10 05:08:28;;;;;;;43.28;29.42;;;;;;;1.07;100.00;101321.66;5052993;28;20222;-78
2022/01/10 05:10:54;;;;;;;46.00;30.48;;;;;;;1.03;100.00;101333.09;5053957;28;20616;-78
2022/01/10 05:13:21;;;;;;;38.25;28.42;;;;;;;1.03;100.00;101327.81;5037670;28;20199;-78
2022/01/10 05:15:49;;;;;;;39.38;26.15;;;;;;;1.07;100.00;101332.22;5053379;28;20175;-77
2022/01/10 05:18:15;;;;;;;40.75;28.52;;;;;;;1.05;100.00;101352.47;5070718;28;20203;-78
2022/01/10 05:20:40;;;;;;;35.50;25.52;;;;;;;1.01;100.00;101348.91;5053267;28;20231;-77
2022/01/10 05:23:06;;;;;;;38.65;27.00;;;;;;;1.03;100.00;101356.84;5052891;28;20167;-77
2022/01/10 05:25:36;;;;;;;44.10;30.05;;;;;;;1.10;100.00;101353.38;5052272;28;20181;-79
2022/01/10 05:28:07;;;;;;;44.90;30.80;;;;;;;1.07;100.00;101361.25;5038401;28;20179;-77
2022/01/10 05:30:32;;;;;;;43.70;30.77;;;;;;;1.07;100.00;101376.22;5033559;28;20183;-77
2022/01/10 05:32:58;;;;;;;46.28;31.33;;;;;;;1.08;100.00;101385.91;5033258;28;20313;-78
2022/01/10 05:35:30;;;;;;;45.42;31.85;;;;;;;1.10;100.00;101389.44;5033990;28;20171;-78
2022/01/10 05:37:55;;;;;;;48.38;31.05;;;;;;;1.08;100.00;101397.34;5032688;28;20263;-79
2022/01/10 05:40:21;;;;;;;43.88;31.17;;;;;;;1.13;100.00;101395.63;5033266;28;20175;-78
2022/01/10 05:42:47;;;;;;;46.97;31.45;;;;;;;1.08;100.00;101402.63;5033490;28;20175;-78
2022/01/10 05:45:13;;;;;;;47.80;33.45;;;;;;;1.08;100.00;101399.97;5016409;28;20194;-78
2022/01/10 05:47:44;;;;;;;58.33;36.67;;;;;;;1.13;100.00;101410.59;5032778;28;20562;-78
2022/01/10 05:50:12;;;;;;;52.50;34.75;;;;;;;1.08;100.00;101405.25;5016705;28;20186;-78
2022/01/10 05:52:42;;;;;;;51.15;34.33;;;;;;;1.14;100.00;101412.38;5033324;28;20168;-78
2022/01/10 05:55:09;;;;;;;54.70;35.38;;;;;;;1.08;100.00;101417.56;5016657;28;20186;-78
2022/01/10 05:57:38;;;;;;;55.95;36.10;;;;;;;1.13;100.00;101429.94;5017961;28;20207;-78
2022/01/10 06:00:04;;;;;;;59.55;37.90;;;;;;;1.15;100.00;101429.97;5033832;28;20203;-78
2022/01/10 06:02:40;;;;;;;64.47;38.90;;;;;;;1.17;100.00;101442.28;5051461;28;20258;-78
2022/01/10 06:05:09;;;;;;;59.60;38.13;;;;;;;1.20;100.00;101439.69;5033676;28;20229;-78
2022/01/10 06:07:42;;;;;;;62.75;39.88;;;;;;;1.22;100.00;101443.25;5033831;28;20522;-78
2022/01/10 06:10:09;;;;;;;65.53;39.47;;;;;;;1.23;100.00;101454.69;5033765;28;20280;-78
2022/01/10 06:12:35;;;;;;;64.68;40.00;;;;;;;1.29;100.00;101454.75;5033729;28;20168;-78
2022/01/10 06:15:00;;;;;;;52.80;36.55;;;;;;;1.28;100.00;101460.88;5035457;28;20168;-77
2022/01/10 06:17:26;;;;;;;57.38;37.47;;;;;;;1.27;100.00;101467.03;5032198;28;20715;-76
2022/01/10 06:19:53;;;;;;;63.17;39.72;;;;;;;1.28;100.00;101479.34;5016138;28;20188;-77
2022/01/10 06:22:18;;;;;;;55.03;36.97;;;;;;;1.28;100.00;101484.63;5032304;28;20179;-77
2022/01/10 06:24:44;;;;;;;59.92;37.35;;;;;;;1.30;100.00;101484.66;5031935;28;20207;-80
2022/01/10 06:27:09;;;;;;;60.83;38.72;;;;;;;1.32;100.00;101496.13;5031330;28;20168;-77
2022/01/10 06:29:35;;;;;;;65.65;41.25;;;;;;;1.29;100.00;101502.25;5015874;28;20866;-77
2022/01/10 06:32:01;;;;;;;62.58;40.88;;;;;;;1.27;100.00;101505.72;5032704;28;20628;-78
2022/01/10 06:34:27;;;;;;;62.53;39.13;;;;;;;1.32;100.00;101520.75;5016326;28;20171;-78
2022/01/10 06:36:53;;;;;;;63.40;41.75;;;;;;;1.37;100.00;101536.66;5033581;28;20596;-77
2022/01/10 06:39:19;;;;;;;56.90;37.25;;;;;;;1.30;100.00;101530.41;5036001;28;20667;-78
2022/01/10 06:41:47;;;;;;;68.30;43.08;;;;;;;1.24;100.00;101547.06;5035441;28;20735;-77
2022/01/10 06:44:13;;;;;;;67.43;42.53;;;;;;;1.29;100.00;101551.50;5018793;28;20171;-78
2022/01/10 06:46:39;;;;;;;72.43;43.10;;;;;;;1.28;100.00;101553.28;5041569;28;20164;-77
2022/01/10 06:49:04;;;;;;;69.70;45.33;;;;;;;1.32;100.00;101556.84;5019876;28;20203;-78
2022/01/10 06:51:30;;;;;;;71.93;45.20;;;;;;;1.27;100.00;101572.63;5035863;28;20173;-78
2022/01/10 06:53:56;;;;;;;69.28;43.25;;;;;;;1.32;100.00;101572.69;5036692;28;20266;-78
2022/01/10 06:56:22;;;;;;;68.18;43.53;;;;;;;1.36;100.00;101582.41;5036579;28;20214;-78
2022/01/10 06:58:47;;;;;;;68.88;43.33;;;;;;;1.33;100.00;101585.00;5036778;28;20249;-77
2022/01/10 07:01:19;;;;;;;69.20;42.20;;;;;;;1.37;100.00;101586.81;5036687;28;20616;-78
2022/01/10 07:03:46;;;;;;;66.00;42.22;;;;;;;1.36;100.00;101607.06;5034770;28;20179;-78
2022/01/10 07:06:17;;;;;;;58.10;38.38;;;;;;;1.31;100.00;101618.41;5034746;28;20179;-79
2022/01/10 07:08:42;;;;;;;65.68;41.05;;;;;;;1.26;100.00;101615.72;5034778;28;20339;-78
2022/01/10 07:11:09;;;;;;;61.60;38.85;;;;;;;1.31;100.00;101621.06;5035072;28;20193;-78
2022/01/10 07:13:37;;;;;;;57.28;37.78;;;;;;;1.32;100.00;101626.38;5033743;28;20175;-77
2022/01/10 07:16:05;;;;;;;59.97;36.42;;;;;;;1.36;100.00;101630.81;5038846;28;20236;-78
2022/01/10 07:18:31;;;;;;;54.88;36.35;;;;;;;1.37;100.00;101648.41;5053331;28;20195;-77
2022/01/10 07:20:59;;;;;;;61.88;37.92;;;;;;;1.37;100.00;101642.25;5055177;28;20257;-77
2022/01/10 07:23:25;;;;;;;57.50;37.15;;;;;;;1.35;100.00;101649.28;5059771;28;20206;-77
2022/01/10 07:25:51;;;;;;;54.30;36.70;;;;;;;1.35;100.00;101657.19;5076210;28;20202;-78
2022/01/10 07:28:16;;;;;;;57.90;36.33;;;;;;;1.36;100.00;101658.97;5055516;28;20206;-78
2022/01/10 07:30:42;;;;;;;54.92;35.95;;;;;;;1.35;100.00;101668.63;5072797;28;20170;-79
2022/01/10 07:33:07;;;;;;;53.33;36.05;;;;;;;1.36;100.00;101688.03;5072397;28;20581;-77
2022/01/10 07:35:33;;;;;;;52.60;36.53;;;;;;;1.32;100.00;101687.09;5071177;28;20212;-77
2022/01/10 07:37:59;;;;;;;56.60;37.13;;;;;;;1.33;100.00;101687.97;5072364;28;20198;-78
2022/01/10 07:40:24;;;;;;;56.85;36.55;;;;;;;1.38;100.00;101699.50;5054501;28;20261;-78
2022/01/10 07:42:50;;;;;;;52.58;34.78;;;;;;;1.40;100.00;101700.38;5055221;28;20923;-78
2022/01/10 07:45:28;;;;;;;53.38;35.00;;;;;;;1.41;100.00;101704.78;5040906;28;20170;-77
2022/01/10 07:47:54;;;;;;;55.10;37.03;;;;;;;1.39;100.00;101711.81;5055194;28;20205;-78
2022/01/10 07:50:19;;;;;;;53.08;34.88;;;;;;;1.43;100.00;101724.19;5074239;28;20179;-78
2022/01/10 07:52:45;;;;;;;57.45;37.08;;;;;;;1.38;100.00;101732.06;5074005;28;20182;-80
2022/01/10 07:55:11;;;;;;;58.83;38.70;;;;;;;1.42;100.00;101728.59;5055185;28;20242;-78
2022/01/10 07:57:37;;;;;;;59.40;37.70;;;;;;;1.40;100.00;101743.53;5060561;28;20202;-78
2022/01/10 08:00:04;;;;;;;61.08;38.58;;;;;;;1.28;100.00;101743.34;5055888;28;20202;-78
2022/01/10 08:02:38;;;;;;;58.67;37.88;;;;;;;1.28;100.00;101750.38;5077854;28;20178;-79
2022/01/10 08:05:04;;;;;;;59.03;38.30;;;;;;;1.32;100.00;101758.34;5057603;28;20178;-79
2022/01/10 08:07:29;;;;;;;50.22;32.78;;;;;;;1.39;100.00;101757.56;5054191;28;20229;-79
2022/01/10 08:09:54;;;;;;;54.03;34.97;;;;;;;1.38;100.00;101763.75;5053522;28;20209;-79
2022/01/10 08:12:20;;;;;;;49.65;34.05;;;;;;;1.42;100.00;101762.91;5071248;28;20210;-79
2022/01/10 08:14:48;;;;;;;51.22;34.75;;;;;;;1.42;100.00;101765.56;5054561;28;20276;-79
2022/01/10 08:17:13;;;;;;;60.53;38.70;;;;;;;1.36;100.00;101768.09;5071582;28;20206;-78
2022/01/10 08:19:38;;;;;;;60.35;38.80;;;;;;;1.38;100.00;101763.75;5053618;28;20264;-79
2022/01/10 08:22:04;;;;;;;59.97;37.85;;;;;;;1.41;100.00;101766.41;5038717;28;20166;-79
2022/01/10 08:24:30;;;;;;;57.03;36.78;;;;;;;1.42;100.00;101764.66;5056994;28;20320;-79
2022/01/10 08:26:56;;;;;;;55.15;35.83;;;;;;;1.45;100.00;101777.91;5073807;28;20175;-78
2022/01/10 08:29:23;;;;;;;55.42;36.45;;;;;;;1.48;100.00;101783.22;5054942;28;20192;-79
2022/01/10 08:31:49;;;;;;;53.97;34.47;;;;;;;1.53;100.00;101788.56;5058527;28;20178;-78
2022/01/10 08:34:14;;;;;;;62.50;37.95;;;;;;;1.51;100.00;101792.94;5061130;28;20179;-78
2022/01/10 08:36:40;;;;;;;59.17;37.33;;;;;;;1.56;100.00;101802.72;5043566;28;20178;-78
2022/01/10 08:39:10;;;;;;;61.00;39.15;;;;;;;1.53;100.00;101813.25;5059846;28;20178;-77
2022/01/10 08:41:36;;;;;;;61.05;38.38;;;;;;;1.54;100.00;101808.84;5071713;28;20225;-78
2022/01/10 08:44:06;;;;;;;59.08;37.50;;;;;;;1.56;100.00;101807.13;5071287;28;20178;-82
2022/01/10 08:46:32;;;;;;;67.07;42.42;;;;;;;1.55;100.00;101813.25;5070394;28;20588;-77
2022/01/10 08:48:58;;;;;;;76.13;46.15;;;;;;;1.53;100.00;101810.63;5071160;28;20195;-77
2022/01/10 08:51:24;;;;;;;75.82;49.25;;;;;;;1.58;100.00;101822.13;5053226;28;20634;-77
2022/01/10 08:53:50;;;;;;;75.30;47.75;;;;;;;1.62;100.00;101836.28;5071201;28;20528;-77
2022/01/10 08:56:15;;;;;;;75.22;46.42;;;;;;;1.62;100.00;101828.34;5071247;28;20219;-80
2022/01/10 08:58:41;;;;;;;74.05;47.13;;;;;;;1.69;100.00;101829.31;5035974;28;20302;-78
2022/01/10 09:01:07;;;;;;;67.10;45.03;;;;;;;1.73;100.00;101837.31;5038920;28;20169;-79
2022/01/10 09:03:33;;;;;;;62.78;41.08;;;;;;;1.77;100.00;101852.34;5072664;28;20188;-78
2022/01/10 09:05:59;;;;;;;64.75;45.20;;;;;;;1.78;100.00;101843.53;5074274;28;20598;-77
2022/01/10 09:08:31;;;;;;;75.85;46.22;;;;;;;1.73;100.00;101865.47;5056783;28;20195;-79
2022/01/10 09:10:57;;;;;;;64.65;42.95;;;;;;;1.73;100.00;101855.81;5072420;28;20170;-79
2022/01/10 09:13:23;;;;;;;65.97;42.70;;;;;;;1.78;100.00;101862.03;5074225;28;20174;-78
2022/01/10 09:15:48;;;;;;;65.32;42.92;;;;;;;1.84;100.00;101872.69;5077372;28;20162;-78
2022/01/10 09:18:14;;;;;;;63.05;42.53;;;;;;;1.88;100.00;101884.22;5055900;28;20213;-79
2022/01/10 09:20:42;;;;;;;61.33;39.80;;;;;;;1.92;100.00;101879.84;5073616;28;20266;-78
2022/01/10 09:23:08;;;;;;;68.05;43.78;;;;;;;1.89;100.00;101896.53;5079822;28;20213;-78
2022/01/10 09:25:33;;;;;;;68.07;44.75;;;;;;;1.88;100.00;101901.78;5077601;28;20202;-78
2022/01/10 09:27:59;;;;;;;77.22;47.88;;;;;;;1.87;100.00;101906.19;5040606;28;20198;-79
2022/01/10 09:30:24;;;;;;;77.70;49.10;;;;;;;1.86;100.00;101917.66;5034924;28;20218;-79
2022/01/10 09:32:52;;;;;;;79.75;49.00;;;;;;;1.91;100.00;101923.00;5035289;28;20179;-78
2022/01/10 09:35:18;;;;;;;76.53;49.42;;;;;;;1.94;100.00;101917.75;5059958;28;20576;-78
2022/01/10 09:37:44;;;;;;;82.55;50.35;;;;;;;1.92;100.00;101917.72;5050892;28;20248;-79
2022/01/10 09:40:09;;;;;;;71.47;46.13;;;;;;;1.95;100.00;101920.41;5035894;28;20227;-78
2022/01/10 09:42:35;;;;;;;74.80;49.75;;;;;;;1.98;100.00;101932.78;5056696;28;20254;-78
2022/01/10 09:45:02;;;;;;;77.53;48.30;;;;;;;1.97;100.00;101929.25;5052993;28;20175;-79
2022/01/10 09:47:27;;;;;;;72.22;48.35;;;;;;;1.97;100.00;101939.84;5052638;28;20183;-79
2022/01/10 09:49:53;;;;;;;71.55;48.08;;;;;;;1.99;100.00;101953.06;5034142;28;20290;-79
2022/01/10 09:52:18;;;;;;;74.03;48.75;;;;;;;1.99;100.00;101961.91;5035429;28;20195;-79
2022/01/10 09:54:44;;;;;;;69.75;47.35;;;;;;;1.97;100.00;101952.16;5038393;28;20167;-78
2022/01/10 09:57:09;;;;;;;71.20;46.95;;;;;;;2.01;100.00;101960.16;5052585;28;20215;-79
2022/01/10 09:59:35;;;;;;;70.43;46.15;;;;;;;2.08;100.00;101965.50;5057363;28;20284;-79
2022/01/10 10:02:02;;;;;;;68.80;46.35;;;;;;;2.06;100.00;101971.69;5058761;28;20176;-78
2022/01/10 10:04:27;;;;;;;72.22;47.97;;;;;;;2.09;100.00;101984.06;5037889;28;20180;-79
2022/01/10 10:06:53;;;;;;;73.40;49.53;;;;;;;2.08;100.00;101989.31;5050821;28;20181;-79
2022/01/10 10:09:19;;;;;;;70.90;47.67;;;;;;;2.09;100.00;101996.38;5052360;28;20226;-79
2022/01/10 10:11:47;;;;;;;75.07;50.25;;;;;;;2.06;100.00;101994.59;5044064;28;20239;-80
2022/01/10 10:14:17;;;;;;;71.30;48.40;;;;;;;2.12;100.00;102004.34;5055280;28;20508;-79
2022/01/10 10:16:49;;;;;;;71.05;46.95;;;;;;;2.12;100.00;102012.28;5055231;28;20186;-79
2022/01/10 10:19:18;;;;;;;65.82;45.25;;;;;;;2.11;100.00;102011.41;5040691;28;20246;-79
2022/01/10 10:21:44;;;;;;;67.78;47.33;;;;;;;2.14;100.00;102021.13;5055636;28;20190;-79
2022/01/10 10:24:09;;;;;;;63.97;43.47;;;;;;;2.17;100.00;102018.56;5059135;28;20250;-78
2022/01/10 10:26:35;;;;;;;68.30;45.95;;;;;;;2.10;100.00;102011.38;5042286;28;20658;-79
2022/01/10 10:29:01;;;;;;;63.80;43.70;;;;;;;2.19;100.00;102022.13;5075049;28;20236;-78
2022/01/10 10:31:28;;;;;;;64.53;45.03;;;;;;;2.24;100.00;102039.81;5076934;28;20643;-78
2022/01/10 10:33:55;;;;;;;66.60;46.97;;;;;;;2.18;100.00;102033.53;5081953;28;20174;-79
2022/01/10 10:36:21;;;;;;;66.72;46.10;;;;;;;2.10;100.00;102044.00;5077008;28;20533;-78
2022/01/10 10:38:47;;;;;;;62.40;44.13;;;;;;;2.16;100.00;102043.19;5074515;28;20210;-78
2022/01/10 10:41:12;;;;;;;64.28;45.53;;;;;;;2.15;100.00;102029.09;5074015;28;20171;-77
2022/01/10 10:43:41;;;;;;;66.15;47.30;;;;;;;2.11;100.00;102029.03;5073900;28;20582;-79
2022/01/10 10:46:16;;;;;;;65.32;45.58;;;;;;;2.12;100.00;102039.63;5058408;28;20232;-79
2022/01/10 10:48:44;;;;;;;63.75;44.60;;;;;;;2.18;100.00;102038.81;5061257;28;20213;-78
2022/01/10 10:51:10;;;;;;;63.10;46.25;;;;;;;2.11;100.00;102047.53;5075202;28;20251;-78
2022/01/10 10:53:37;;;;;;;65.85;46.03;;;;;;;2.14;100.00;102056.38;5073182;28;20163;-80
2022/01/10 10:56:05;;;;;;;65.32;46.05;;;;;;;2.08;100.00;102065.97;5072829;28;20661;-79
2022/01/10 10:58:31;;;;;;;64.30;44.95;;;;;;;2.12;100.00;102065.16;5079671;28;20198;-77
2022/01/10 11:00:58;;;;;;;64.05;45.53;;;;;;;2.13;100.00;102075.78;5079297;28;20214;-80
2022/01/10 11:03:24;;;;;;;63.67;44.22;;;;;;;2.14;100.00;102082.81;5072786;28;20643;-81
2022/01/10 11:05:53;;;;;;;67.60;45.72;;;;;;;2.16;100.00;102085.50;5053923;28;20200;-79
2022/01/10 11:08:19;;;;;;;62.88;45.38;;;;;;;2.15;100.00;102094.31;5054683;28;20187;-80
2022/01/10 11:10:45;;;;;;;64.50;45.28;;;;;;;2.13;100.00;102083.69;5057167;28;20155;-79
2022/01/10 11:13:12;;;;;;;59.65;43.47;;;;;;;2.23;100.00;102100.59;5054650;28;20210;-79
2022/01/10 11:15:40;;;;;;;61.00;43.95;;;;;;;2.18;100.00;102099.63;5073079;28;20171;-78
2022/01/10 11:18:09;;;;;;;65.47;43.60;;;;;;;2.09;100.00;102096.84;5074743;28;20190;-78
2022/01/10 11:20:49;;;;;;;62.35;41.92;;;;;;;2.15;100.00;102102.25;5055491;28;20667;-78